createdAt,value
2018-02-18T00:00:05.977Z,98973.40
2018-02-18T00:02:34.261Z,98975.20
2018-02-18T00:05:02.569Z,98976.52
2018-02-18T00:07:30.899Z,98974.84
2018-02-18T00:09:59.902Z,98977.50
2018-02-18T00:12:28.259Z,98978.44
2018-02-18T00:14:57.308Z,98987.25
2018-02-18T00:17:25.577Z,98991.92
2018-02-18T00:19:55.383Z,98992.58
2018-02-18T00:22:23.666Z,98992.70
2018-02-18T00:24:52.023Z,98992.64
2018-02-18T00:27:20.357Z,98999.32
2018-02-18T00:29:49.506Z,99001.44
2018-02-18T00:32:17.793Z,99000.13
2018-02-18T00:34:46.850Z,98989.15
2018-02-18T00:37:15.143Z,98996.34
2018-02-18T00:39:43.446Z,98993.52
2018-02-18T00:42:11.725Z,99000.88
2018-02-18T00:44:40.001Z,98997.66
2018-02-18T00:47:08.272Z,99002.34
2018-02-18T00:49:36.555Z,99004.52
2018-02-18T00:52:04.822Z,99011.06
2018-02-18T00:54:33.123Z,99018.95
2018-02-18T00:57:02.174Z,99017.61
2018-02-18T00:59:30.449Z,99019.91
2018-02-18T01:01:58.768Z,99027.23
2018-02-18T01:04:27.812Z,99027.13
2018-02-18T01:06:56.115Z,99028.87
2018-02-18T01:09:24.396Z,99032.42
2018-02-18T01:11:52.716Z,99035.19
2018-02-18T01:14:21.000Z,99044.21
2018-02-18T01:16:49.280Z,99042.38
2018-02-18T01:19:17.561Z,99040.48
2018-02-18T01:21:45.847Z,99049.02
2018-02-18T01:24:14.144Z,99048.55
2018-02-18T01:26:42.495Z,99050.72
2018-02-18T01:29:10.769Z,99052.07
2018-02-18T01:31:39.057Z,99047.09
2018-02-18T01:34:07.340Z,99046.10
2018-02-18T01:36:35.659Z,99052.11
2018-02-18T01:39:04.716Z,99048.73
2018-02-18T01:41:32.987Z,99053.00
2018-02-18T01:44:01.275Z,99058.89
2018-02-18T01:46:29.567Z,99057.90
2018-02-18T01:48:57.879Z,99051.69
2018-02-18T01:51:26.200Z,99051.86
2018-02-18T01:53:55.272Z,99049.77
2018-02-18T01:56:23.564Z,99056.66
2018-02-18T01:58:51.851Z,99056.73
2018-02-18T02:01:20.153Z,99055.77
2018-02-18T02:03:49.201Z,99058.40
2018-02-18T02:06:17.492Z,99062.02
2018-02-18T02:08:45.804Z,99057.66
2018-02-18T02:11:14.852Z,99057.55
2018-02-18T02:13:43.160Z,99055.73
2018-02-18T02:16:11.469Z,99052.33
2018-02-18T02:18:39.774Z,99060.45
2018-02-18T02:21:08.072Z,99063.33
2018-02-18T02:23:36.401Z,99072.55
2018-02-18T02:26:04.686Z,99066.58
2018-02-18T02:28:32.979Z,99070.05
2018-02-18T02:31:01.273Z,99067.63
2018-02-18T02:33:29.609Z,99067.80
2018-02-18T02:35:57.893Z,99064.84
2018-02-18T02:38:26.196Z,99071.86
2018-02-18T02:40:54.527Z,99068.34
2018-02-18T02:43:23.589Z,99080.27
2018-02-18T02:45:51.863Z,99071.94
2018-02-18T02:48:20.157Z,99079.93
2018-02-18T02:50:49.225Z,99071.81
2018-02-18T02:53:17.517Z,99076.00
2018-02-18T02:55:45.820Z,99073.14
2018-02-18T02:58:14.863Z,99070.71
2018-02-18T03:00:43.187Z,99071.27
2018-02-18T03:03:12.244Z,99068.95
2018-02-18T03:05:40.557Z,99069.75
2018-02-18T03:08:09.623Z,99068.97
2018-02-18T03:10:37.986Z,99073.37
2018-02-18T03:13:06.315Z,99074.07
2018-02-18T03:15:35.376Z,99075.25
2018-02-18T03:18:03.655Z,99080.27
2018-02-18T03:20:31.944Z,99075.33
2018-02-18T03:23:00.997Z,99079.63
2018-02-18T03:25:29.313Z,99077.24
2018-02-18T03:27:58.370Z,99084.48
2018-02-18T03:30:26.706Z,99084.38
2018-02-18T03:32:55.004Z,99089.50
2018-02-18T03:35:23.294Z,99087.26
2018-02-18T03:37:51.592Z,99088.50
2018-02-18T03:40:19.854Z,99084.23
2018-02-18T03:42:48.128Z,99084.16
2018-02-18T03:45:16.396Z,99084.16
2018-02-18T03:47:44.693Z,99078.95
2018-02-18T03:50:12.973Z,99079.56
2018-02-18T03:52:41.253Z,99076.73
2018-02-18T03:55:09.551Z,99083.03
2018-02-18T03:57:38.624Z,99083.19
2018-02-18T04:00:06.915Z,99083.01
2018-02-18T04:02:35.194Z,99089.84
2018-02-18T04:05:04.238Z,99092.50
2018-02-18T04:07:32.520Z,99090.68
2018-02-18T04:10:00.857Z,99087.92
2018-02-18T04:12:29.181Z,99092.38
2018-02-18T04:14:57.460Z,99085.33
2018-02-18T04:17:25.754Z,99086.42
2018-02-18T04:19:54.028Z,99091.73
2018-02-18T04:22:22.332Z,99077.12
2018-02-18T04:24:51.409Z,99080.38
2018-02-18T04:27:19.720Z,99081.50
2018-02-18T04:29:48.030Z,99080.92
2018-02-18T04:32:16.339Z,99082.91
2018-02-18T04:34:44.670Z,99089.92
2018-02-18T04:37:12.951Z,99092.75
2018-02-18T04:39:41.251Z,99094.03
2018-02-18T04:42:09.526Z,99102.50
2018-02-18T04:44:37.835Z,99106.04
2018-02-18T04:47:06.913Z,99105.34
2018-02-18T04:49:35.203Z,99110.50
2018-02-18T04:52:04.274Z,99108.25
2018-02-18T04:54:32.608Z,99110.46
2018-02-18T04:57:00.893Z,99110.38
2018-02-18T04:59:29.192Z,99108.53
2018-02-18T05:01:57.507Z,99106.47
2018-02-18T05:04:26.559Z,99113.95
2018-02-18T05:06:54.895Z,99113.72
2018-02-18T05:09:23.266Z,99119.52
2018-02-18T05:11:51.573Z,99118.00
2018-02-18T05:14:19.851Z,99119.86
2018-02-18T05:16:48.160Z,99124.98
2018-02-18T05:19:16.445Z,99121.27
2018-02-18T05:21:44.754Z,99128.38
2018-02-18T05:24:13.062Z,99125.69
2018-02-18T05:26:41.395Z,99126.86
2018-02-18T05:29:10.494Z,99130.57
2018-02-18T05:31:39.551Z,99135.47
2018-02-18T05:34:07.854Z,99137.64
2018-02-18T05:36:37.738Z,99135.52
2018-02-18T05:39:06.084Z,99139.26
2018-02-18T05:41:34.408Z,99139.34
2018-02-18T05:44:02.690Z,99137.28
2018-02-18T05:46:30.986Z,99136.06
2018-02-18T05:49:00.092Z,99136.83
2018-02-18T05:51:28.383Z,99139.94
2018-02-18T05:53:56.696Z,99147.26
2018-02-18T05:56:25.028Z,99158.17
2018-02-18T05:58:53.341Z,99161.63
2018-02-18T06:01:21.652Z,99163.39
2018-02-18T06:03:49.980Z,99165.30
2018-02-18T06:06:18.296Z,99159.27
2018-02-18T06:08:47.402Z,99161.48
2018-02-18T06:11:16.480Z,99163.57
2018-02-18T06:13:44.819Z,99158.45
2018-02-18T06:16:13.129Z,99160.77
2018-02-18T06:18:41.438Z,99163.34
2018-02-18T06:21:09.752Z,99163.63
2018-02-18T06:23:38.076Z,99164.17
2018-02-18T06:26:07.140Z,99161.48
2018-02-18T06:28:35.482Z,99162.78
2018-02-18T06:31:03.768Z,99168.92
2018-02-18T06:33:32.064Z,99161.44
2018-02-18T06:36:00.380Z,99163.53
2018-02-18T06:38:28.690Z,99171.54
2018-02-18T06:40:56.990Z,99171.63
2018-02-18T06:43:25.341Z,99175.03
2018-02-18T06:45:53.616Z,99178.45
2018-02-18T06:48:21.923Z,99189.38
2018-02-18T06:50:50.286Z,99190.15
2018-02-18T06:53:18.597Z,99193.86
2018-02-18T06:55:46.921Z,99189.56
2018-02-18T06:58:15.207Z,99199.55
2018-02-18T07:00:43.552Z,99197.06
2018-02-18T07:03:12.663Z,99197.25
2018-02-18T07:05:41.037Z,99195.47
2018-02-18T07:08:10.182Z,99195.76
2018-02-18T07:10:38.522Z,99199.55
2018-02-18T07:13:06.856Z,99202.30
2018-02-18T07:15:35.137Z,99196.13
2018-02-18T07:18:03.451Z,99192.22
2018-02-18T07:20:31.778Z,99186.14
2018-02-18T07:23:00.087Z,99185.08
2018-02-18T07:25:29.194Z,99188.26
2018-02-18T07:27:57.596Z,99190.23
2018-02-18T07:30:25.885Z,99190.47
2018-02-18T07:32:54.193Z,99194.72
2018-02-18T07:35:22.490Z,99195.01
2018-02-18T07:37:51.585Z,99189.70
2018-02-18T07:40:20.644Z,99197.03
2018-02-18T07:42:48.956Z,99188.88
2018-02-18T07:45:18.009Z,99194.70
2018-02-18T07:47:46.329Z,99201.98
2018-02-18T07:50:15.387Z,99202.36
2018-02-18T07:52:43.729Z,99210.16
2018-02-18T07:55:12.101Z,99206.33
2018-02-18T07:57:40.362Z,99201.25
2018-02-18T08:00:08.639Z,99204.61
2018-02-18T08:02:37.066Z,99203.91
2018-02-18T08:05:05.399Z,99206.09
2018-02-18T08:07:33.750Z,99201.77
2018-02-18T08:10:02.129Z,99203.08
2018-02-18T08:12:31.221Z,99196.44
2018-02-18T08:14:59.554Z,99202.06
2018-02-18T08:17:27.871Z,99199.78
2018-02-18T08:19:56.198Z,99197.41
2018-02-18T08:22:24.595Z,99201.09
2018-02-18T08:24:52.884Z,99197.52
2018-02-18T08:27:21.236Z,99189.38
2018-02-18T08:29:49.541Z,99195.64
2018-02-18T08:32:17.925Z,99193.59
2018-02-18T08:34:46.227Z,99194.72
2018-02-18T08:37:15.304Z,99195.20
2018-02-18T08:39:43.648Z,99190.78
2018-02-18T08:42:11.965Z,99189.47
2018-02-18T08:44:40.300Z,99195.75
2018-02-18T08:47:08.608Z,99193.92
2018-02-18T08:49:36.897Z,99194.73
2018-02-18T08:52:05.953Z,99190.87
2018-02-18T08:54:34.272Z,99191.91
2018-02-18T08:57:03.324Z,99195.98
2018-02-18T08:59:31.650Z,99192.38
2018-02-18T09:02:00.727Z,99191.81
2018-02-18T09:04:29.033Z,99190.12
2018-02-18T09:06:57.353Z,99186.88
2018-02-18T09:09:25.777Z,99187.00
2018-02-18T09:11:54.878Z,99193.75
2018-02-18T09:14:23.941Z,99192.28
2018-02-18T09:16:52.239Z,99196.94
2018-02-18T09:19:21.313Z,99190.20
2018-02-18T09:21:49.602Z,99189.46
2018-02-18T09:24:18.638Z,99191.52
2018-02-18T09:26:46.954Z,99192.77
2018-02-18T09:29:15.189Z,99190.58
2018-02-18T09:31:43.483Z,99191.84
2018-02-18T09:34:11.728Z,99188.94
2018-02-18T09:36:40.768Z,99190.38
2018-02-18T09:39:09.023Z,99182.20
2018-02-18T09:41:37.325Z,99185.88
2018-02-18T09:44:05.627Z,99190.81
2018-02-18T09:46:33.942Z,99188.48
2018-02-18T09:49:02.257Z,99188.38
2018-02-18T09:51:30.586Z,99190.03
2018-02-18T09:53:58.859Z,99190.31
2018-02-18T09:56:27.143Z,99192.63
2018-02-18T09:58:55.434Z,99197.54
2018-02-18T10:01:23.725Z,99198.00
2018-02-18T10:03:51.999Z,99198.74
2018-02-18T10:06:20.244Z,99199.05
2018-02-18T10:08:48.498Z,99196.30
2018-02-18T10:11:17.501Z,99204.08
2018-02-18T10:13:45.760Z,99197.31
2018-02-18T10:16:14.774Z,99199.80
2018-02-18T10:18:43.032Z,99203.11
2018-02-18T10:21:12.045Z,99198.53
2018-02-18T10:23:40.309Z,99202.10
2018-02-18T10:26:08.563Z,99208.45
2018-02-18T10:28:37.593Z,99206.11
2018-02-18T10:31:05.878Z,99203.28
2018-02-18T10:33:34.204Z,99204.06
2018-02-18T10:36:02.445Z,99201.63
2018-02-18T10:38:31.419Z,99201.92
2018-02-18T10:40:59.729Z,99201.09
2018-02-18T10:43:28.829Z,99194.59
2018-02-18T10:45:57.180Z,99196.86
2018-02-18T10:48:25.479Z,99192.39
2018-02-18T10:50:53.776Z,99183.95
2018-02-18T10:53:22.836Z,99192.89
2018-02-18T10:55:51.079Z,99180.85
2018-02-18T10:58:19.336Z,99183.68
2018-02-18T11:00:48.360Z,99175.55
2018-02-18T11:03:16.603Z,99179.38
2018-02-18T11:05:52.348Z,99170.09
2018-02-18T11:08:21.408Z,99171.22
2018-02-18T11:10:49.672Z,99167.23
2018-02-18T11:13:17.966Z,99157.00
2018-02-18T11:15:46.321Z,99152.06
2018-02-18T11:18:14.580Z,99149.09
2018-02-18T11:20:42.839Z,99147.98
2018-02-18T11:23:11.860Z,99143.30
2018-02-18T11:25:40.102Z,99139.95
2018-02-18T11:28:09.114Z,99141.53
2018-02-18T11:30:37.364Z,99138.59
2018-02-18T11:33:05.599Z,99143.66
2018-02-18T11:35:33.850Z,99143.45
2018-02-18T11:38:02.091Z,99145.39
2018-02-18T11:40:30.337Z,99141.66
2018-02-18T11:42:58.582Z,99148.23
2018-02-18T11:45:26.829Z,99146.19
2018-02-18T11:47:55.837Z,99138.88
2018-02-18T11:50:24.116Z,99135.59
2018-02-18T11:52:53.093Z,99131.20
2018-02-18T11:55:21.334Z,99132.81
2018-02-18T11:57:49.583Z,99136.61
2018-02-18T12:00:17.823Z,99134.47
2018-02-18T12:02:46.064Z,99130.06
2018-02-18T12:05:14.302Z,99128.42
2018-02-18T12:07:42.554Z,99132.59
2018-02-18T12:10:10.794Z,99129.90
2018-02-18T12:12:39.037Z,99128.79
2018-02-18T12:15:07.282Z,99121.61
2018-02-18T12:17:35.529Z,99118.38
2018-02-18T12:20:04.552Z,99119.75
2018-02-18T12:22:32.793Z,99117.02
2018-02-18T12:25:01.030Z,99125.31
2018-02-18T12:27:29.276Z,99117.88
2018-02-18T12:29:57.520Z,99123.65
2018-02-18T12:32:26.541Z,99124.81
2018-02-18T12:34:54.780Z,99128.86
2018-02-18T12:37:23.023Z,99124.13
2018-02-18T12:39:51.266Z,99129.00
2018-02-18T12:42:19.510Z,99126.88
2018-02-18T12:44:47.758Z,99124.11
2018-02-18T12:47:16.004Z,99132.23
2018-02-18T12:49:44.256Z,99133.88
2018-02-18T12:52:13.265Z,99144.17
2018-02-18T12:54:41.523Z,99133.98
2018-02-18T12:57:10.522Z,99142.55
2018-02-18T12:59:38.773Z,99143.86
2018-02-18T13:02:07.779Z,99144.55
2018-02-18T13:04:36.788Z,99137.11
2018-02-18T13:07:05.056Z,99139.34
2018-02-18T13:09:34.053Z,99139.32
2018-02-18T13:12:02.298Z,99131.85
2018-02-18T13:14:30.552Z,99125.16
2018-02-18T13:16:58.791Z,99122.56
2018-02-18T13:19:27.034Z,99119.40
2018-02-18T13:21:56.040Z,99115.39
2018-02-18T13:24:25.050Z,99115.69
2018-02-18T13:26:53.318Z,99110.30
2018-02-18T13:29:21.536Z,99115.49
2018-02-18T13:31:49.774Z,99120.53
2018-02-18T13:34:18.038Z,99120.05
2018-02-18T13:36:46.285Z,99119.91
2018-02-18T13:39:15.290Z,99116.58
2018-02-18T13:41:44.309Z,99113.70
2018-02-18T13:44:12.548Z,99110.93
2018-02-18T13:46:40.880Z,99095.86
2018-02-18T13:49:09.121Z,99097.61
2018-02-18T13:51:38.138Z,99088.63
2018-02-18T13:54:06.382Z,99096.85
2018-02-18T13:56:35.393Z,99098.95
2018-02-18T13:59:03.633Z,99096.22
2018-02-18T14:01:31.885Z,99093.58
2018-02-18T14:04:00.208Z,99091.88
2018-02-18T14:06:29.235Z,99086.65
2018-02-18T14:08:57.615Z,99094.97
2018-02-18T14:11:25.857Z,99098.34
2018-02-18T14:13:54.862Z,99095.26
2018-02-18T14:16:23.218Z,99090.19
2018-02-18T14:18:52.232Z,99091.78
2018-02-18T14:21:20.473Z,99095.17
2018-02-18T14:23:48.718Z,99099.70
2018-02-18T14:26:16.968Z,99093.55
2018-02-18T14:28:45.206Z,99089.04
2018-02-18T14:31:14.224Z,99092.36
2018-02-18T14:33:42.469Z,99090.04
2018-02-18T14:36:10.727Z,99090.68
2018-02-18T14:38:38.961Z,99092.10
2018-02-18T14:41:07.214Z,99094.44
2018-02-18T14:43:53.369Z,99098.89
2018-02-18T14:46:39.463Z,99091.02
2018-02-18T14:49:25.543Z,99086.83
2018-02-18T14:55:37.514Z,99086.95
2018-02-18T14:58:06.529Z,99074.53
2018-02-18T15:00:34.762Z,99077.78
2018-02-18T15:03:03.015Z,99077.11
2018-02-18T15:05:31.254Z,99080.94
2018-02-18T15:07:59.529Z,99084.48
2018-02-18T15:10:29.570Z,99085.52
2018-02-18T15:12:58.654Z,99090.19
2018-02-18T15:15:26.966Z,99085.67
2018-02-18T15:17:55.392Z,99082.65
2018-02-18T15:20:23.690Z,99088.27
2018-02-18T15:22:52.018Z,99089.79
2018-02-18T15:25:21.110Z,99090.90
2018-02-18T15:27:49.424Z,99082.92
2018-02-18T15:30:17.705Z,99077.20
2018-02-18T15:32:46.006Z,99068.10
2018-02-18T15:35:14.308Z,99076.66
2018-02-18T15:37:42.587Z,99071.66
2018-02-18T15:40:10.885Z,99074.22
2018-02-18T15:42:39.182Z,99073.91
2018-02-18T15:45:07.466Z,99080.47
2018-02-18T15:47:35.718Z,99082.14
2018-02-18T15:50:04.743Z,99083.30
2018-02-18T15:52:32.991Z,99088.84
2018-02-18T15:55:01.260Z,99079.53
2018-02-18T15:57:29.521Z,99079.64
2018-02-18T15:59:58.563Z,99072.88
2018-02-18T16:02:26.822Z,99079.22
2018-02-18T16:04:55.082Z,99082.76
2018-02-18T16:07:23.387Z,99080.07
2018-02-18T16:09:51.665Z,99085.84
2018-02-18T16:12:19.931Z,99081.41
2018-02-18T16:14:48.198Z,99087.13
2018-02-18T16:17:16.457Z,99087.89
2018-02-18T16:19:44.726Z,99092.38
2018-02-18T16:22:13.751Z,99090.78
2018-02-18T16:24:42.021Z,99093.70
2018-02-18T16:27:10.284Z,99093.80
2018-02-18T16:29:38.550Z,99089.35
2018-02-18T16:32:06.816Z,99097.89
2018-02-18T16:34:35.865Z,99093.39
2018-02-18T16:37:04.151Z,99092.73
2018-02-18T16:39:32.401Z,99097.12
2018-02-18T16:42:00.667Z,99098.66
2018-02-18T16:44:28.929Z,99096.46
2018-02-18T16:46:57.198Z,99093.39
2018-02-18T16:49:25.777Z,99086.57
2018-02-18T16:51:54.077Z,99090.31
2018-02-18T16:54:22.369Z,99084.27
2018-02-18T16:56:50.615Z,99088.38
2018-02-18T16:59:18.886Z,99097.20
2018-02-18T17:01:47.161Z,99097.05
2018-02-18T17:04:15.424Z,99099.25
2018-02-18T17:06:44.469Z,99095.93
2018-02-18T17:09:12.765Z,99097.57
2018-02-18T17:11:41.099Z,99099.13
2018-02-18T17:14:09.367Z,99105.42
2018-02-18T17:16:37.637Z,99095.89
2018-02-18T17:19:05.915Z,99094.95
2018-02-18T17:21:34.265Z,99089.90
2018-02-18T17:24:02.589Z,99093.25
2018-02-18T17:26:30.898Z,99089.53
2018-02-18T17:28:59.853Z,99090.56
2018-02-18T17:31:28.186Z,99086.66
2018-02-18T17:33:56.479Z,99084.74
2018-02-18T17:36:25.559Z,99089.34
2018-02-18T17:38:53.956Z,99086.80
2018-02-18T17:41:22.267Z,99089.77
2018-02-18T17:43:50.553Z,99088.54
2018-02-18T17:46:18.854Z,99091.46
2018-02-18T17:48:47.159Z,99089.98
2018-02-18T17:51:16.215Z,99088.36
2018-02-18T17:53:44.526Z,99084.61
2018-02-18T17:56:13.661Z,99081.72
2018-02-18T17:58:41.966Z,99073.00
2018-02-18T18:01:10.240Z,99075.07
2018-02-18T18:03:38.581Z,99076.84
2018-02-18T18:06:06.938Z,99076.84
2018-02-18T18:08:36.046Z,99072.13
2018-02-18T18:11:04.357Z,99070.72
2018-02-18T18:13:32.646Z,99076.20
2018-02-18T18:16:01.010Z,99073.34
2018-02-18T18:18:41.743Z,99079.50
2018-02-18T18:21:10.080Z,99075.86
2018-02-18T18:23:38.442Z,99076.42
2018-02-18T18:26:06.793Z,99074.02
2018-02-18T18:28:35.119Z,99067.38
2018-02-18T18:31:03.434Z,99064.78
2018-02-18T18:33:31.764Z,99049.28
2018-02-18T18:36:00.111Z,99050.33
2018-02-18T18:38:28.389Z,99052.38
2018-02-18T18:40:56.667Z,99052.08
2018-02-18T18:43:25.343Z,99046.08
2018-02-18T18:45:54.079Z,99047.84
2018-02-18T18:48:22.471Z,99044.50
2018-02-18T18:50:51.643Z,99041.71
2018-02-18T18:53:19.975Z,99044.62
2018-02-18T18:55:48.328Z,99044.86
2018-02-18T18:58:17.363Z,99050.67
2018-02-18T19:00:45.633Z,99048.41
2018-02-18T19:03:13.889Z,99046.06
2018-02-18T19:05:42.213Z,99035.55
2018-02-18T19:08:11.370Z,99032.23
2018-02-18T19:10:39.628Z,99026.46
2018-02-18T19:13:08.108Z,99026.80
2018-02-18T19:15:36.400Z,99025.19
2018-02-18T19:18:04.671Z,99025.27
2018-02-18T19:20:33.052Z,99018.03
2018-02-18T19:23:01.372Z,99021.00
2018-02-18T19:25:29.623Z,99015.45
2018-02-18T19:27:57.868Z,99017.64
2018-02-18T19:30:26.131Z,99014.67
2018-02-18T19:32:55.151Z,99014.50
2018-02-18T19:35:23.411Z,99008.40
2018-02-18T19:37:52.421Z,99008.83
2018-02-18T19:40:20.681Z,99008.08
2018-02-18T19:42:48.945Z,99000.47
2018-02-18T19:45:17.979Z,99005.77
2018-02-18T19:47:46.229Z,99002.42
2018-02-18T19:50:14.490Z,99008.11
2018-02-18T19:52:43.507Z,99006.75
2018-02-18T19:55:11.784Z,99005.11
2018-02-18T19:57:40.037Z,99006.58
2018-02-18T20:00:09.078Z,99000.86
2018-02-18T20:02:37.339Z,99007.16
2018-02-18T20:05:05.610Z,99002.82
2018-02-18T20:07:33.872Z,99001.97
2018-02-18T20:10:02.140Z,98996.00
2018-02-18T20:12:31.217Z,98996.86
2018-02-18T20:14:59.471Z,99000.48
2018-02-18T20:17:27.734Z,98999.07
2018-02-18T20:19:55.991Z,98998.47
2018-02-18T20:22:24.262Z,99000.95
2018-02-18T20:24:52.526Z,98991.90
2018-02-18T20:27:20.821Z,98988.31
2018-02-18T20:29:49.829Z,98986.08
2018-02-18T20:32:18.092Z,98980.83
2018-02-18T20:34:46.367Z,98981.29
2018-02-18T20:37:14.636Z,98980.69
2018-02-18T20:39:42.940Z,98982.06
2018-02-18T20:42:11.202Z,98984.20
2018-02-18T20:44:39.470Z,98980.08
2018-02-18T20:47:07.796Z,98977.80
2018-02-18T20:49:36.842Z,98977.55
2018-02-18T20:52:05.119Z,98975.86
2018-02-18T20:54:33.376Z,98977.17
2018-02-18T20:57:01.632Z,98971.56
2018-02-18T20:59:30.660Z,98971.41
2018-02-18T21:01:58.920Z,98973.09
2018-02-18T21:04:27.188Z,98974.51
2018-02-18T21:06:56.209Z,98979.16
2018-02-18T21:09:24.472Z,98977.95
2018-02-18T21:11:52.777Z,98978.66
2018-02-18T21:14:21.040Z,98972.98
2018-02-18T21:16:49.325Z,98969.89
2018-02-18T21:19:17.583Z,98970.00
2018-02-18T21:21:45.830Z,98970.56
2018-02-18T21:24:14.891Z,98964.31
2018-02-18T21:26:43.155Z,98961.61
2018-02-18T21:29:11.420Z,98957.03
2018-02-18T21:31:39.684Z,98955.57
2018-02-18T21:34:07.940Z,98949.81
2018-02-18T21:36:36.405Z,98954.31
2018-02-18T21:39:05.472Z,98953.97
2018-02-18T21:41:33.761Z,98958.11
2018-02-18T21:44:02.036Z,98966.17
2018-02-18T21:46:30.302Z,98962.41
2018-02-18T21:48:58.567Z,98964.25
2018-02-18T21:51:26.852Z,98963.02
2018-02-18T21:53:55.129Z,98968.83
2018-02-18T21:56:23.404Z,98965.64
2018-02-18T21:58:51.685Z,98964.33
2018-02-18T22:01:19.961Z,98956.23
2018-02-18T22:03:48.256Z,98960.53
2018-02-18T22:06:17.317Z,98961.35
2018-02-18T22:08:45.621Z,98951.66
2018-02-18T22:11:16.466Z,98960.10
2018-02-18T22:13:45.560Z,98954.88
2018-02-18T22:16:14.625Z,98961.01
2018-02-18T22:18:42.902Z,98957.59
2018-02-18T22:21:11.205Z,98955.80
2018-02-18T22:23:40.271Z,98949.19
2018-02-18T22:26:08.552Z,98949.86
2018-02-18T22:28:36.856Z,98947.66
2018-02-18T22:31:05.909Z,98943.11
2018-02-18T22:33:34.715Z,98944.82
2018-02-18T22:36:03.003Z,98951.16
2018-02-18T22:38:32.071Z,98946.66
2018-02-18T22:41:00.345Z,98945.75
2018-02-18T22:43:28.617Z,98945.75
2018-02-18T22:45:56.912Z,98941.32
2018-02-18T22:48:25.182Z,98936.06
2018-02-18T22:50:53.483Z,98940.32
2018-02-18T22:53:22.566Z,98935.69
2018-02-18T22:55:50.860Z,98929.20
2018-02-18T22:58:19.899Z,98926.78
2018-02-18T23:00:48.185Z,98929.30
2018-02-18T23:03:16.468Z,98928.70
2018-02-18T23:05:50.321Z,98928.02
2018-02-18T23:08:18.628Z,98927.58
2018-02-18T23:10:46.956Z,98932.27
2018-02-18T23:13:16.022Z,98925.81
2018-02-18T23:15:45.072Z,98924.11
2018-02-18T23:18:13.361Z,98924.81
2018-02-18T23:20:59.454Z,98924.00
2018-02-18T23:23:27.724Z,98921.55
2018-02-18T23:25:56.001Z,98916.80
2018-02-18T23:28:24.287Z,98915.38
2018-02-18T23:30:52.575Z,98916.00
2018-02-18T23:33:20.831Z,98905.48
2018-02-18T23:35:49.200Z,98910.46
2018-02-18T23:38:17.475Z,98907.45
2018-02-18T23:40:45.745Z,98901.87
2018-02-18T23:43:14.022Z,98900.30
2018-02-18T23:45:43.125Z,98904.46
2018-02-18T23:48:11.495Z,98896.20
2018-02-18T23:50:40.645Z,98894.42
2018-02-18T23:53:08.990Z,98888.44
2018-02-18T23:55:37.329Z,98894.95
2018-02-18T23:58:06.410Z,98888.41
